Time;durP1;ratioP1;P1;durP2;ratioP2;P2;SDS_P1;SDS_P2;PMS_P1;PMS_P2;Temp;Humidity;BMP_temperature;BMP_pressure;BME280_temperature;BME280_humidity;BME280_pressure;Samples;Min_cycle;Max_cycle;Signal;HPM_P1;HPM_P2
2024/01/06 00:00:12;;;;;;;;;20.25;15.50;;;;;-146.67;100.00;57155.34;5061168;28;61875;-80
2024/01/06 00:02:38;;;;;;;;;23.25;21.25;;;;;-146.67;100.00;57155.34;5062590;28;61668;-80
2024/01/06 00:05:03;;;;;;;;;23.00;19.50;;;;;-146.67;100.00;57155.34;5042809;28;62493;-80
2024/01/06 00:07:29;;;;;;;;;27.75;23.25;;;;;-146.67;100.00;57155.34;5061928;28;62010;-80
2024/01/06 00:09:54;;;;;;;;;21.50;20.50;;;;;-146.67;100.00;57155.34;5061858;28;61995;-79
2024/01/06 00:12:19;;;;;;;;;22.25;20.25;;;;;-146.67;100.00;57155.34;5062552;28;61892;-80
2024/01/06 00:14:45;;;;;;;;;20.00;18.00;;;;;-146.67;100.00;57155.34;5061845;28;61775;-80
2024/01/06 00:17:11;;;;;;;;;23.50;15.25;;;;;-146.67;100.00;57155.34;5043946;28;61752;-79
2024/01/06 00:19:36;;;;;;;;;14.25;13.25;;;;;-146.67;100.00;57155.34;5060659;28;61794;-80
2024/01/06 00:22:02;;;;;;;;;21.75;18.25;;;;;-146.67;100.00;57155.34;5062363;28;61657;-79
2024/01/06 00:24:27;;;;;;;;;21.25;18.50;;;;;-146.67;100.00;57155.34;5061264;28;63119;-79
2024/01/06 00:26:52;;;;;;;;;20.00;15.50;;;;;-146.67;100.00;57155.34;5062125;28;62207;-80
2024/01/06 00:29:18;;;;;;;;;20.50;18.00;;;;;-146.67;100.00;57155.34;5060542;28;61856;-80
2024/01/06 00:31:43;;;;;;;;;29.50;27.25;;;;;-146.67;100.00;57155.34;5062276;28;62057;-80
2024/01/06 00:34:09;;;;;;;;;27.75;21.75;;;;;-146.67;100.00;57155.34;5060815;28;61820;-80
2024/01/06 00:36:34;;;;;;;;;25.00;23.50;;;;;-146.67;100.00;57155.34;5062048;28;61836;-80
2024/01/06 00:39:00;;;;;;;;;23.25;18.50;;;;;-146.67;100.00;57155.34;5061270;28;61926;-80
2024/01/06 00:41:26;;;;;;;;;25.00;23.25;;;;;-146.67;100.00;57155.34;5062230;28;61760;-80
2024/01/06 00:43:51;;;;;;;;;21.75;19.00;;;;;-146.67;100.00;57155.34;5061258;28;62318;-79
2024/01/06 00:46:16;;;;;;;;;25.25;23.25;;;;;-146.67;100.00;57155.34;5060180;28;62003;-79
2024/01/06 00:48:42;;;;;;;;;30.75;25.50;;;;;-146.67;100.00;57155.34;5061696;28;61979;-79
2024/01/06 00:51:07;;;;;;;;;22.00;19.00;;;;;-146.67;100.00;57155.34;5062003;28;61804;-80
2024/01/06 00:53:32;;;;;;;;;26.50;21.75;;;;;-146.67;100.00;57155.34;5061073;28;61775;-80
2024/01/06 00:55:58;;;;;;;;;27.00;22.75;;;;;-146.67;100.00;57155.34;5061763;28;61686;-80
2024/01/06 00:58:23;;;;;;;;;28.00;22.00;;;;;-146.67;100.00;57155.34;5064770;28;62009;-79
2024/01/06 01:00:49;;;;;;;;;22.00;16.50;;;;;-146.67;100.00;57155.34;5065024;28;61964;-80
2024/01/06 01:03:15;;;;;;;;;19.75;19.75;;;;;-146.67;100.00;57155.34;5064437;28;62794;-80
2024/01/06 01:05:40;;;;;;;;;23.00;22.75;;;;;-146.67;100.00;57155.34;5064421;28;61818;-80
2024/01/06 01:08:06;;;;;;;;;29.25;22.75;;;;;-146.67;100.00;57155.34;5046234;28;61941;-80
2024/01/06 01:10:31;;;;;;;;;25.25;22.75;;;;;-146.67;100.00;57155.34;5065080;28;62006;-80
2024/01/06 01:12:56;;;;;;;;;22.50;20.00;;;;;-146.67;100.00;57155.34;5046154;28;64788;-80
2024/01/06 01:15:22;;;;;;;;;22.75;20.50;;;;;-146.67;100.00;57155.34;5064529;28;62012;-79
2024/01/06 01:17:47;;;;;;;;;23.50;22.00;;;;;-146.67;100.00;57155.34;5064962;28;61933;-80
2024/01/06 01:20:12;;;;;;;;;27.00;19.25;;;;;-146.67;100.00;57155.34;5064940;28;61836;-80
2024/01/06 01:22:38;;;;;;;;;22.75;21.25;;;;;-146.67;100.00;57155.34;5063639;28;61998;-79
2024/01/06 01:25:07;;;;;;;;;21.25;18.50;;;;;-146.67;100.00;57155.34;5046274;28;61969;-80
2024/01/06 01:27:33;;;;;;;;;23.50;22.00;;;;;-146.67;100.00;57155.34;5046448;28;61812;-80
2024/01/06 01:29:58;;;;;;;;;23.50;21.25;;;;;-146.67;100.00;57155.34;5046329;28;61983;-79
2024/01/06 01:32:24;;;;;;;;;23.00;23.00;;;;;-146.67;100.00;57155.34;5063978;28;62594;-80
2024/01/06 01:34:49;;;;;;;;;20.75;16.25;;;;;-146.67;100.00;57155.34;5064064;28;61701;-80
2024/01/06 01:37:15;;;;;;;;;22.25;19.25;;;;;-146.67;100.00;57155.34;5064384;28;61939;-80
2024/01/06 01:39:41;;;;;;;;;16.00;16.00;;;;;-146.67;100.00;57155.34;5064407;28;61701;-79
2024/01/06 01:42:06;;;;;;;;;16.00;14.50;;;;;-146.67;100.00;57155.34;5064036;28;62726;-80
2024/01/06 01:44:31;;;;;;;;;19.25;15.75;;;;;-146.67;100.00;57155.34;5045778;28;61891;-80
2024/01/06 01:46:57;;;;;;;;;17.25;15.50;;;;;-146.67;100.00;57155.34;5064634;28;61740;-80
2024/01/06 01:49:23;;;;;;;;;17.00;14.25;;;;;-146.67;100.00;57155.34;5064111;28;61966;-80
2024/01/06 01:51:49;;;;;;;;;17.25;14.25;;;;;-146.67;100.00;57155.34;5063976;28;61803;-80
2024/01/06 01:54:15;;;;;;;;;18.25;13.50;;;;;-146.67;100.00;57155.34;5064340;28;61921;-80
2024/01/06 01:56:42;;;;;;;;;13.00;13.00;;;;;-146.67;100.00;57155.34;5064316;28;61807;-79
2024/01/06 01:59:13;;;;;;;;;14.25;14.25;;;;;-146.67;100.00;57155.34;5063980;28;61822;-79
2024/01/06 02:01:40;;;;;;;;;15.50;11.50;;;;;-146.67;100.00;57155.34;5063621;28;61863;-79
2024/01/06 02:04:05;;;;;;;;;13.00;10.50;;;;;-146.67;100.00;57155.34;5063728;28;62078;-79
2024/01/06 02:06:30;;;;;;;;;15.25;13.75;;;;;-146.67;100.00;57155.34;5063783;28;61978;-80
2024/01/06 02:08:56;;;;;;;;;12.25;10.25;;;;;-146.67;100.00;57155.34;5062887;28;61988;-80
2024/01/06 02:11:21;;;;;;;;;15.25;12.00;;;;;-146.67;100.00;57155.34;5063549;28;61780;-79
2024/01/06 02:13:46;;;;;;;;;14.25;9.50;;;;;-146.67;100.00;57155.34;5063811;28;62058;-80
2024/01/06 02:16:12;;;;;;;;;11.00;9.75;;;;;-146.67;100.00;57155.34;5064198;28;61946;-80
2024/01/06 02:18:37;;;;;;;;;12.50;9.00;;;;;-146.67;100.00;57155.34;5063886;28;61973;-80
2024/01/06 02:21:03;;;;;;;;;12.25;8.50;;;;;-146.67;100.00;57155.34;5063559;28;61959;-80
2024/01/06 02:23:29;;;;;;;;;12.50;10.00;;;;;-146.67;100.00;57155.34;5063370;28;61799;-79
2024/01/06 02:25:55;;;;;;;;;13.25;8.50;;;;;-146.67;100.00;57155.34;5064228;28;61675;-80
2024/01/06 02:28:21;;;;;;;;;10.25;9.00;;;;;-146.67;100.00;57155.34;5062395;28;61988;-79
2024/01/06 02:30:47;;;;;;;;;8.00;7.75;;;;;-146.67;100.00;57155.34;5063196;28;61679;-79
2024/01/06 02:33:12;;;;;;;;;14.75;12.25;;;;;-146.67;100.00;57155.34;5063687;28;61764;-80
2024/01/06 02:35:37;;;;;;;;;10.75;9.25;;;;;-146.67;100.00;57155.34;5063296;28;61819;-80
2024/01/06 02:38:03;;;;;;;;;13.75;13.75;;;;;-146.67;100.00;57155.34;5063766;28;62075;-79
2024/01/06 02:40:28;;;;;;;;;14.50;13.00;;;;;-146.67;100.00;57155.34;5062913;28;61776;-80
2024/01/06 02:42:54;;;;;;;;;19.00;15.25;;;;;-146.67;100.00;57155.34;5063281;28;61879;-80
2024/01/06 02:45:19;;;;;;;;;13.50;11.25;;;;;-146.67;100.00;57155.34;5063397;28;61791;-79
2024/01/06 02:47:45;;;;;;;;;16.00;15.00;;;;;-146.67;100.00;57155.34;5063839;28;61818;-80
2024/01/06 02:50:10;;;;;;;;;22.75;16.25;;;;;-146.67;100.00;57155.34;5062880;28;62895;-80
2024/01/06 02:52:36;;;;;;;;;15.75;15.75;;;;;-146.67;100.00;57155.34;5063225;28;61921;-80
2024/01/06 02:55:01;;;;;;;;;16.50;15.00;;;;;-146.67;100.00;57155.34;5063242;28;62387;-79
2024/01/06 02:57:30;;;;;;;;;11.25;11.25;;;;;-146.67;100.00;57155.34;5045213;28;61927;-79
2024/01/06 02:59:56;;;;;;;;;18.75;18.00;;;;;-146.67;100.00;57155.34;5061334;28;64616;-80
2024/01/06 03:02:22;;;;;;;;;16.75;11.50;;;;;-146.67;100.00;57155.34;5063435;28;61675;-80
2024/01/06 03:04:47;;;;;;;;;24.25;17.75;;;;;-146.67;100.00;57155.34;5062493;28;61769;-80
2024/01/06 03:07:12;;;;;;;;;25.00;15.50;;;;;-146.67;100.00;57155.34;5061606;28;61779;-80
2024/01/06 03:09:38;;;;;;;;;17.00;9.25;;;;;-146.67;100.00;57155.34;5062396;28;61841;-80
2024/01/06 03:12:06;;;;;;;;;26.75;23.00;;;;;-146.67;100.00;57155.34;5062981;28;61870;-80
2024/01/06 03:14:31;;;;;;;;;29.25;17.50;;;;;-146.67;100.00;57155.34;5063218;28;61963;-79
2024/01/06 03:16:58;;;;;;;;;14.75;14.75;;;;;-146.67;100.00;57155.34;5063374;28;61810;-80
2024/01/06 03:19:25;;;;;;;;;14.75;13.25;;;;;-146.67;100.00;57155.34;5062195;28;61910;-79
2024/01/06 03:21:51;;;;;;;;;21.25;17.25;;;;;-146.67;100.00;57155.34;5062866;28;62057;-80
2024/01/06 03:24:17;;;;;;;;;17.50;15.75;;;;;-146.67;100.00;57155.34;5062900;28;61840;-79
2024/01/06 03:26:42;;;;;;;;;16.50;13.25;;;;;-146.67;100.00;57155.34;5061123;28;61816;-79
2024/01/06 03:29:07;;;;;;;;;17.25;13.50;;;;;-146.67;100.00;57155.34;5062162;28;61979;-80
2024/01/06 03:31:33;;;;;;;;;17.00;14.00;;;;;-146.67;100.00;57155.34;5061614;28;61903;-80
2024/01/06 03:33:58;;;;;;;;;22.75;17.00;;;;;-146.67;100.00;57155.34;5062240;28;61982;-79
2024/01/06 03:36:23;;;;;;;;;7.50;6.50;;;;;-146.67;100.00;57155.34;5063189;28;61795;-80
2024/01/06 03:38:49;;;;;;;;;17.75;14.00;;;;;-146.67;100.00;57155.34;5061768;28;62009;-79
2024/01/06 03:41:14;;;;;;;;;20.00;14.25;;;;;-146.67;100.00;57155.34;5044235;28;61940;-79
2024/01/06 03:43:39;;;;;;;;;14.00;11.25;;;;;-146.67;100.00;57155.34;5062818;28;61844;-80
2024/01/06 03:46:05;;;;;;;;;20.50;17.50;;;;;-146.67;100.00;57155.34;5063003;28;61752;-80
2024/01/06 03:48:31;;;;;;;;;11.75;10.25;;;;;-146.67;100.00;57155.34;5062014;28;61931;-79
2024/01/06 03:50:58;;;;;;;;;21.25;15.00;;;;;-146.67;100.00;57155.34;5062469;28;61772;-79
2024/01/06 03:53:24;;;;;;;;;12.75;12.00;;;;;-146.67;100.00;57155.34;5061025;28;61792;-79
2024/01/06 03:55:49;;;;;;;;;18.50;14.75;;;;;-146.67;100.00;57155.34;5062430;28;61858;-79
2024/01/06 03:58:15;;;;;;;;;21.25;15.25;;;;;-146.67;100.00;57155.34;5061749;28;61878;-79
2024/01/06 04:00:40;;;;;;;;;23.00;17.75;;;;;-146.67;100.00;57155.34;5062480;28;62027;-79
2024/01/06 04:03:06;;;;;;;;;15.75;11.75;;;;;-146.67;100.00;57155.34;5062599;28;61782;-79
2024/01/06 04:05:32;;;;;;;;;14.25;13.00;;;;;-146.67;100.00;57155.34;5062793;28;61894;-80
2024/01/06 04:07:57;;;;;;;;;20.25;16.75;;;;;-146.67;100.00;57155.34;5061280;28;61799;-80
2024/01/06 04:10:22;;;;;;;;;14.00;11.00;;;;;-146.67;100.00;57155.34;5060427;28;62072;-80
2024/01/06 04:12:48;;;;;;;;;23.25;15.25;;;;;-146.67;100.00;57155.34;5044348;28;62006;-80
2024/01/06 04:15:13;;;;;;;;;15.75;15.75;;;;;-146.67;100.00;57155.34;5062315;28;62123;-80
2024/01/06 04:17:38;;;;;;;;;14.50;14.00;;;;;-146.67;100.00;57155.34;5043554;28;63698;-80
2024/01/06 04:20:05;;;;;;;;;20.50;18.75;;;;;-146.67;100.00;57155.34;5061997;28;62067;-80
2024/01/06 04:22:30;;;;;;;;;18.75;15.00;;;;;-146.67;100.00;57155.34;5062419;28;61956;-80
2024/01/06 04:24:57;;;;;;;;;15.00;14.00;;;;;-146.67;100.00;57155.34;5061609;28;61785;-80
2024/01/06 04:27:23;;;;;;;;;21.25;18.00;;;;;-146.67;100.00;57155.34;5061551;28;61731;-80
2024/01/06 04:29:48;;;;;;;;;23.25;16.00;;;;;-146.67;100.00;57155.34;5061934;28;61939;-80
2024/01/06 04:32:13;;;;;;;;;20.25;19.00;;;;;-146.67;100.00;57155.34;5063626;28;61746;-80
2024/01/06 04:34:38;;;;;;;;;14.00;13.50;;;;;-146.67;100.00;57155.34;5063958;28;61705;-80
2024/01/06 04:37:04;;;;;;;;;18.75;14.00;;;;;-146.67;100.00;57155.34;5065144;28;62502;-80
2024/01/06 04:39:29;;;;;;;;;20.25;16.00;;;;;-146.67;100.00;57155.34;5064698;28;61899;-79
2024/01/06 04:41:55;;;;;;;;;22.00;16.25;;;;;-146.67;100.00;57155.34;5065636;28;62007;-80
2024/01/06 04:44:21;;;;;;;;;18.25;13.25;;;;;-146.67;100.00;57155.34;5065726;28;61910;-80
2024/01/06 04:46:46;;;;;;;;;23.00;15.00;;;;;-146.67;100.00;57155.34;5064711;28;62563;-80
2024/01/06 04:49:12;;;;;;;;;23.50;16.50;;;;;-146.67;100.00;57155.34;5065133;28;61793;-80
2024/01/06 04:51:37;;;;;;;;;16.25;12.00;;;;;-146.67;100.00;57155.34;5065564;28;61789;-80
2024/01/06 04:54:03;;;;;;;;;22.25;19.25;;;;;-146.67;100.00;57155.34;5064770;28;61654;-80
2024/01/06 04:56:28;;;;;;;;;20.50;15.50;;;;;-146.67;100.00;57155.34;5046627;28;63491;-80
2024/01/06 04:58:54;;;;;;;;;25.75;19.50;;;;;-146.67;100.00;57155.34;5065296;28;61975;-79
2024/01/06 05:01:19;;;;;;;;;23.25;17.00;;;;;-146.67;100.00;57155.34;5065210;28;61753;-80
2024/01/06 05:03:45;;;;;;;;;20.50;15.00;;;;;-146.67;100.00;57155.34;5046362;28;62043;-79
2024/01/06 05:06:10;;;;;;;;;15.00;14.25;;;;;-146.67;100.00;57155.34;5045895;28;63936;-80
2024/01/06 05:08:38;;;;;;;;;20.00;15.25;;;;;-146.67;100.00;57155.34;5046370;28;61989;-79
2024/01/06 05:11:05;;;;;;;;;18.00;18.00;;;;;-146.67;100.00;57155.34;5047156;28;62171;-80
2024/01/06 05:13:30;;;;;;;;;19.75;16.75;;;;;-146.67;100.00;57155.34;5065209;28;62104;-80
2024/01/06 05:15:55;;;;;;;;;18.50;15.50;;;;;-146.67;100.00;57155.34;5064429;28;61942;-80
2024/01/06 05:18:21;;;;;;;;;16.75;16.75;;;;;-146.67;100.00;57155.34;5063296;28;62113;-80
2024/01/06 05:20:46;;;;;;;;;17.00;16.50;;;;;-146.67;100.00;57155.34;5064880;28;61845;-80
2024/01/06 05:23:12;;;;;;;;;19.00;18.25;;;;;-146.67;100.00;57155.34;5046465;28;61996;-79
2024/01/06 05:25:37;;;;;;;;;18.00;17.25;;;;;-146.67;100.00;57155.34;5045659;28;63728;-80
2024/01/06 05:28:03;;;;;;;;;18.75;14.50;;;;;-146.67;100.00;57155.34;5064651;28;61834;-80
2024/01/06 05:30:28;;;;;;;;;24.50;18.00;;;;;-146.67;100.00;57155.34;5064521;28;61714;-79
2024/01/06 05:32:54;;;;;;;;;18.25;18.00;;;;;-146.67;100.00;57155.34;5046972;28;61922;-80
2024/01/06 05:35:19;;;;;;;;;20.25;18.00;;;;;-146.67;100.00;57155.34;5063417;28;61798;-80
2024/01/06 05:37:44;;;;;;;;;22.75;18.25;;;;;-146.67;100.00;57155.34;5064288;28;61849;-80
2024/01/06 05:40:11;;;;;;;;;19.00;18.00;;;;;-146.67;100.00;57155.34;5064421;28;61911;-80
2024/01/06 05:42:36;;;;;;;;;14.00;10.75;;;;;-146.67;100.00;57155.34;5064454;28;61760;-80
2024/01/06 05:45:02;;;;;;;;;26.75;19.00;;;;;-146.67;100.00;57155.34;5063070;28;61846;-79
2024/01/06 05:47:27;;;;;;;;;24.00;17.00;;;;;-146.67;100.00;57155.34;5064079;28;61829;-79
2024/01/06 05:49:53;;;;;;;;;24.00;19.25;;;;;-146.67;100.00;57155.34;5064447;28;62451;-80
2024/01/06 05:52:18;;;;;;;;;22.50;19.25;;;;;-146.67;100.00;57155.34;5064381;28;61843;-79
2024/01/06 05:54:43;;;;;;;;;16.50;14.50;;;;;-146.67;100.00;57155.34;5045271;28;63618;-79
2024/01/06 05:57:09;;;;;;;;;18.25;16.25;;;;;-146.67;100.00;57155.34;5064263;28;61741;-80
2024/01/06 05:59:35;;;;;;;;;21.00;19.25;;;;;-146.67;100.00;57155.34;5064117;28;61780;-80
2024/01/06 06:02:00;;;;;;;;;22.00;16.50;;;;;-146.67;100.00;57155.34;5064609;28;61850;-80
2024/01/06 06:04:25;;;;;;;;;23.50;21.50;;;;;-146.67;100.00;57155.34;5044863;28;63693;-80
2024/01/06 06:06:51;;;;;;;;;22.75;18.50;;;;;-146.67;100.00;57155.34;5055916;28;61927;-80
2024/01/06 06:09:16;;;;;;;;;18.75;14.00;;;;;-146.67;100.00;57155.34;5042259;28;62017;-80
2024/01/06 06:11:42;;;;;;;;;18.50;13.50;;;;;-146.67;100.00;57155.34;5044082;28;61869;-80
2024/01/06 06:14:08;;;;;;;;;16.75;15.00;;;;;-146.67;100.00;57155.34;5043381;28;62052;-80
2024/01/06 06:16:33;;;;;;;;;21.75;19.50;;;;;-146.67;100.00;57155.34;5043859;28;61740;-80
2024/01/06 06:18:58;;;;;;;;;22.00;18.25;;;;;-146.67;100.00;57155.34;5043965;28;61677;-79
2024/01/06 06:21:24;;;;;;;;;25.00;21.00;;;;;-146.67;100.00;57155.34;5025465;28;61789;-80
2024/01/06 06:23:50;;;;;;;;;22.75;18.00;;;;;-146.67;100.00;57155.34;5042994;28;61844;-80
2024/01/06 06:26:15;;;;;;;;;27.25;21.00;;;;;-146.67;100.00;57155.34;5043817;28;61790;-80
2024/01/06 06:28:41;;;;;;;;;25.75;21.75;;;;;-146.67;100.00;57155.34;5043371;28;61923;-79
2024/01/06 06:31:07;;;;;;;;;32.00;23.25;;;;;-146.67;100.00;57155.34;5042515;28;62018;-80
2024/01/06 06:33:33;;;;;;;;;30.00;25.25;;;;;-146.67;100.00;57155.34;5042357;28;61955;-79
2024/01/06 06:35:58;;;;;;;;;40.25;34.75;;;;;-146.67;100.00;57155.34;5043263;28;61950;-80
2024/01/06 06:38:25;;;;;;;;;34.75;30.25;;;;;-146.67;100.00;57155.34;5043717;28;61823;-80
2024/01/06 06:40:51;;;;;;;;;36.75;30.00;;;;;-146.67;100.00;57155.34;5025582;28;61695;-80
2024/01/06 06:43:16;;;;;;;;;27.50;23.25;;;;;-146.67;100.00;57155.34;5042796;28;62556;-80
2024/01/06 06:45:41;;;;;;;;;35.25;25.00;;;;;-146.67;100.00;57155.34;5025454;28;61798;-80
2024/01/06 06:48:07;;;;;;;;;30.00;23.25;;;;;-146.67;100.00;57155.34;5043425;28;61871;-79
2024/01/06 06:50:32;;;;;;;;;23.50;19.75;;;;;-146.67;100.00;57155.34;5043087;28;61793;-80
2024/01/06 06:52:58;;;;;;;;;27.50;23.25;;;;;-146.67;100.00;57155.34;5024863;28;64118;-80
2024/01/06 06:55:23;;;;;;;;;29.75;22.75;;;;;-146.67;100.00;57155.34;5040838;28;61792;-80
2024/01/06 06:57:49;;;;;;;;;25.00;16.50;;;;;-146.67;100.00;57155.34;5043456;28;62112;-80
2024/01/06 07:00:16;;;;;;;;;20.50;15.75;;;;;-146.67;100.00;57155.34;5025449;28;61933;-80
2024/01/06 07:02:41;;;;;;;;;19.25;13.00;;;;;-146.67;100.00;57155.34;5042451;28;61971;-80
2024/01/06 07:05:07;;;;;;;;;12.25;12.25;;;;;-146.67;100.00;57155.34;5040870;28;61929;-80
2024/01/06 07:07:35;;;;;;;;;31.00;20.75;;;;;-146.67;100.00;57155.34;5062798;28;62033;-80
2024/01/06 07:10:03;;;;;;;;;22.00;19.50;;;;;-146.67;100.00;57155.34;5061819;28;62015;-80
2024/01/06 07:12:28;;;;;;;;;18.75;17.00;;;;;-146.67;100.00;57155.34;5062761;28;61730;-80
2024/01/06 07:14:53;;;;;;;;;26.25;21.75;;;;;-146.67;100.00;57155.34;5062960;28;61897;-79
2024/01/06 07:17:19;;;;;;;;;20.25;18.75;;;;;-146.67;100.00;57155.34;5063284;28;61740;-79
2024/01/06 07:19:44;;;;;;;;;19.00;14.00;;;;;-146.67;100.00;57155.34;5062691;28;61790;-80
2024/01/06 07:22:10;;;;;;;;;18.75;15.25;;;;;-146.67;100.00;57155.34;5062490;28;61868;-80
2024/01/06 07:24:36;;;;;;;;;26.50;18.00;;;;;-146.67;100.00;57155.34;5061076;28;62088;-80
2024/01/06 07:27:03;;;;;;;;;18.00;15.50;;;;;-146.67;100.00;57155.34;5062861;28;61867;-80
2024/01/06 07:29:28;;;;;;;;;22.00;15.00;;;;;-146.67;100.00;57155.34;5063084;28;61909;-80
2024/01/06 07:31:53;;;;;;;;;21.75;14.50;;;;;-146.67;100.00;57155.34;5062316;28;63230;-81
2024/01/06 07:34:19;;;;;;;;;21.25;16.25;;;;;-146.67;100.00;57155.34;5043924;28;61976;-80
2024/01/06 07:36:44;;;;;;;;;17.50;14.75;;;;;-146.67;100.00;57155.34;5062675;28;61767;-78
2024/01/06 07:39:10;;;;;;;;;25.75;18.25;;;;;-146.67;100.00;57155.34;5061300;28;61975;-80
2024/01/06 07:41:35;;;;;;;;;17.00;13.00;;;;;-146.67;100.00;57155.34;5062231;28;62538;-80
2024/01/06 07:44:02;;;;;;;;;17.00;12.00;;;;;-146.67;100.00;57155.34;5062513;28;61943;-80
2024/01/06 07:46:28;;;;;;;;;20.00;20.00;;;;;-146.67;100.00;57155.34;5062739;28;61711;-80
2024/01/06 07:48:53;;;;;;;;;21.00;17.00;;;;;-146.67;100.00;57155.34;5062258;28;62000;-80
2024/01/06 07:51:18;;;;;;;;;15.75;10.00;;;;;-146.67;100.00;57155.34;5062131;28;61963;-80
2024/01/06 07:53:44;;;;;;;;;13.25;10.50;;;;;-146.67;100.00;57155.34;5060842;28;61983;-80
2024/01/06 07:56:09;;;;;;;;;19.50;15.50;;;;;-146.67;100.00;57155.34;5062519;28;61775;-80
2024/01/06 07:58:35;;;;;;;;;16.25;13.25;;;;;-146.67;100.00;57155.34;5062694;28;61775;-80
2024/01/06 08:01:01;;;;;;;;;16.25;15.00;;;;;-146.67;100.00;57155.34;5060341;28;63662;-80
2024/01/06 08:03:27;;;;;;;;;14.75;13.00;;;;;-146.67;100.00;57155.34;5061420;28;61817;-80
2024/01/06 08:05:52;;;;;;;;;18.25;16.50;;;;;-146.67;100.00;57155.34;5060131;28;62012;-81
2024/01/06 08:08:18;;;;;;;;;10.50;10.50;;;;;-146.67;100.00;57155.34;5065534;28;61778;-80
2024/01/06 08:10:44;;;;;;;;;20.50;18.50;;;;;-146.67;100.00;57155.34;5065112;28;62895;-80
2024/01/06 08:13:09;;;;;;;;;13.50;11.00;;;;;-146.67;100.00;57155.34;5047775;28;61895;-79
2024/01/06 08:15:35;;;;;;;;;14.25;13.75;;;;;-146.67;100.00;57155.34;5065967;28;62121;-80
2024/01/06 08:18:00;;;;;;;;;15.50;11.00;;;;;-146.67;100.00;57155.34;5065655;28;61727;-80
2024/01/06 08:20:25;;;;;;;;;15.75;14.50;;;;;-146.67;100.00;57155.34;5064993;28;61741;-80
2024/01/06 08:22:51;;;;;;;;;12.25;12.00;;;;;-146.67;100.00;57155.34;5065935;28;61789;-80
2024/01/06 08:25:17;;;;;;;;;13.75;11.50;;;;;-146.67;100.00;57155.34;5065114;28;61727;-80
2024/01/06 08:27:43;;;;;;;;;17.75;13.25;;;;;-146.67;100.00;57155.34;5065980;28;61747;-80
2024/01/06 08:30:08;;;;;;;;;12.25;9.00;;;;;-146.67;100.00;57155.34;5063526;28;64911;-81
2024/01/06 08:32:34;;;;;;;;;12.50;12.00;;;;;-146.67;100.00;57155.34;5065405;28;61792;-80
2024/01/06 08:34:59;;;;;;;;;8.25;8.25;;;;;-146.67;100.00;57155.34;5065238;28;62022;-81
2024/01/06 08:37:24;;;;;;;;;11.50;10.00;;;;;-146.67;100.00;57155.34;5065963;28;62075;-80
2024/01/06 08:39:50;;;;;;;;;10.25;8.75;;;;;-146.67;100.00;57155.34;5064429;28;62772;-79
2024/01/06 08:42:15;;;;;;;;;14.00;9.50;;;;;-146.67;100.00;57155.34;5065511;28;61818;-79
2024/01/06 08:44:40;;;;;;;;;14.00;9.00;;;;;-146.67;100.00;57155.34;5065598;28;61878;-79
2024/01/06 08:47:06;;;;;;;;;13.75;13.00;;;;;-146.67;100.00;57155.34;5047066;28;61863;-79
2024/01/06 08:49:31;;;;;;;;;10.75;9.25;;;;;-146.67;100.00;57155.34;5064638;28;62714;-79
2024/01/06 08:51:58;;;;;;;;;10.75;9.50;;;;;-146.67;100.00;57155.34;5065369;28;62024;-79
2024/01/06 08:54:24;;;;;;;;;11.50;8.25;;;;;-146.67;100.00;57155.34;5046892;28;62054;-79
2024/01/06 08:56:49;;;;;;;;;15.00;9.75;;;;;-146.67;100.00;57155.34;5047314;28;61819;-79
2024/01/06 08:59:15;;;;;;;;;10.25;9.50;;;;;-146.67;100.00;57155.34;5064118;28;62021;-78
2024/01/06 09:01:40;;;;;;;;;10.50;9.50;;;;;-146.67;100.00;57155.34;5065333;28;61806;-77
2024/01/06 09:04:06;;;;;;;;;13.50;10.00;;;;;-146.67;100.00;57155.34;5064671;28;61807;-79
2024/01/06 09:06:32;;;;;;;;;9.25;8.00;;;;;-146.67;100.00;57155.34;5063698;28;61783;-79
2024/01/06 09:08:57;;;;;;;;;10.00;9.25;;;;;-146.67;100.00;57155.34;5045773;28;64927;-79
2024/01/06 09:11:22;;;;;;;;;10.50;9.75;;;;;-146.67;100.00;57155.34;5046639;28;61935;-79
2024/01/06 09:13:48;;;;;;;;;10.50;10.00;;;;;-146.67;100.00;57155.34;5064630;28;61841;-78
2024/01/06 09:16:13;;;;;;;;;14.25;10.75;;;;;-146.67;100.00;57155.34;5065123;28;61904;-79
2024/01/06 09:18:39;;;;;;;;;10.00;8.00;;;;;-146.67;100.00;57155.34;5045970;28;63769;-79
2024/01/06 09:21:05;;;;;;;;;7.25;6.00;;;;;-146.67;100.00;57155.34;5046655;28;61878;-80
2024/01/06 09:23:31;;;;;;;;;12.00;8.75;;;;;-146.67;100.00;57155.34;5064799;28;61870;-80
2024/01/06 09:25:57;;;;;;;;;10.00;5.25;;;;;-146.67;100.00;57155.34;5046650;28;62152;-80
2024/01/06 09:28:23;;;;;;;;;8.25;6.00;;;;;-146.67;100.00;57155.34;5063823;28;62647;-80
2024/01/06 09:30:48;;;;;;;;;7.00;6.25;;;;;-146.67;100.00;57155.34;5064647;28;61932;-80
2024/01/06 09:33:15;;;;;;;;;11.75;9.75;;;;;-146.67;100.00;57155.34;5064578;28;61806;-80
2024/01/06 09:35:42;;;;;;;;;15.50;8.25;;;;;-146.67;100.00;57155.34;5064437;28;61783;-80
2024/01/06 09:38:07;;;;;;;;;11.50;10.00;;;;;-146.67;100.00;57155.34;5045786;28;64723;-80
2024/01/06 09:40:35;;;;;;;;;9.25;7.25;;;;;-146.67;100.00;57155.34;5064219;28;61819;-80
2024/01/06 09:43:01;;;;;;;;;8.00;6.75;;;;;-146.67;100.00;57155.34;5064614;28;61852;-80
2024/01/06 09:45:28;;;;;;;;;8.50;8.50;;;;;-146.67;100.00;57155.34;5064595;28;62207;-80
2024/01/06 09:47:55;;;;;;;;;10.25;6.25;;;;;-146.67;100.00;57155.34;5063840;28;62716;-79
2024/01/06 09:50:21;;;;;;;;;4.25;3.50;;;;;-146.67;100.00;57155.34;5046375;28;61912;-80
2024/01/06 09:52:56;;;;;;;;;5.25;5.00;;;;;-146.67;100.00;57155.34;5064697;28;61837;-80
2024/01/06 09:55:26;;;;;;;;;6.00;5.00;;;;;-146.67;100.00;57155.34;5064107;28;61755;-79
2024/01/06 09:57:53;;;;;;;;;5.00;5.00;;;;;-146.67;100.00;57155.34;5063684;28;62568;-80
2024/01/06 10:00:20;;;;;;;;;3.00;1.50;;;;;-146.67;100.00;57155.34;5045899;28;61841;-80
2024/01/06 10:02:46;;;;;;;;;14.50;5.00;;;;;-146.67;100.00;57155.34;5046332;28;61841;-81
2024/01/06 10:05:13;;;;;;;;;1.00;1.00;;;;;-146.67;100.00;57155.34;5063825;28;61861;-78
2024/01/06 10:07:41;;;;;;;;;4.50;3.00;;;;;-146.67;100.00;57155.34;5062281;28;64661;-79
2024/01/06 10:10:07;;;;;;;;;4.75;4.50;;;;;-146.67;100.00;57155.34;5062121;28;62052;-78
2024/01/06 10:12:32;;;;;;;;;6.75;4.00;;;;;-146.67;100.00;57155.34;5063813;28;61923;-78
2024/01/06 10:14:58;;;;;;;;;2.50;2.00;;;;;-146.67;100.00;57155.34;5046219;28;61806;-78
2024/01/06 10:17:23;;;;;;;;;3.00;2.00;;;;;-146.67;100.00;57155.34;5063405;28;61935;-78
2024/01/06 10:19:49;;;;;;;;;5.00;3.50;;;;;-146.67;100.00;57155.34;5063971;28;61841;-78
2024/01/06 10:22:15;;;;;;;;;5.25;4.00;;;;;-146.67;100.00;57155.34;5064064;28;61826;-78
2024/01/06 10:24:40;;;;;;;;;3.00;3.00;;;;;-146.67;100.00;57155.34;5063969;28;62195;-79
2024/01/06 10:27:06;;;;;;;;;6.25;3.00;;;;;-146.67;100.00;57155.34;5061696;28;63784;-79
2024/01/06 10:29:32;;;;;;;;;6.00;4.75;;;;;-146.67;100.00;57155.34;5062732;28;61987;-78
2024/01/06 10:31:58;;;;;;;;;3.00;3.00;;;;;-146.67;100.00;57155.34;5063989;28;61902;-79
2024/01/06 10:34:24;;;;;;;;;5.25;2.75;;;;;-146.67;100.00;57155.34;5063559;28;61813;-79
2024/01/06 10:36:51;;;;;;;;;5.00;2.25;;;;;-146.67;100.00;57155.34;5063187;28;63290;-78
2024/01/06 10:39:18;;;;;;;;;3.00;2.00;;;;;-146.67;100.00;57155.34;5063369;28;61924;-78
2024/01/06 10:41:44;;;;;;;;;3.00;3.00;;;;;-146.67;100.00;57155.34;5063547;28;61965;-78
2024/01/06 10:44:11;;;;;;;;;4.75;4.75;;;;;-146.67;100.00;57155.34;5063696;28;61920;-79
2024/01/06 10:46:38;;;;;;;;;4.50;2.25;;;;;-146.67;100.00;57155.34;5072282;28;62701;-78
2024/01/06 10:49:05;;;;;;;;;3.50;3.00;;;;;-146.67;100.00;57155.34;5081609;28;38436;-79